Time;durP1;ratioP1;P1;durP2;ratioP2;P2;SDS_P1;SDS_P2;PMS_P1;PMS_P2;Temp;Humidity;BMP_temperature;BMP_pressure;BME280_temperature;BME280_humidity;BME280_pressure;Samples;Min_cycle;Max_cycle;Signal;HPM_P1;HPM_P2
2022/09/24 00:01:19;;;;;;;37.80;31.42;;;14.00;99.90;;;;;;5033856;28;20047;-74
2022/09/24 00:03:49;;;;;;;38.80;31.00;;;14.00;99.90;;;;;;5069846;28;20056;-73
2022/09/24 00:06:17;;;;;;;36.95;30.88;;;14.00;99.90;;;;;;5069690;28;20092;-74
2022/09/24 00:08:45;;;;;;;37.13;31.02;;;13.90;99.90;;;;;;5069913;28;20053;-74
2022/09/24 00:11:11;;;;;;;37.97;30.50;;;14.00;99.90;;;;;;5070654;28;20044;-73
2022/09/24 00:13:38;;;;;;;35.53;29.75;;;14.00;99.90;;;;;;5070482;28;20043;-74
2022/09/24 00:16:09;;;;;;;37.42;31.63;;;14.00;99.90;;;;;;5071124;28;20058;-74
2022/09/24 00:18:36;;;;;;;39.50;31.73;;;14.00;99.90;;;;;;5072318;28;20051;-74
2022/09/24 00:21:11;;;;;;;38.63;30.83;;;14.00;99.90;;;;;;5090209;28;20048;-74
2022/09/24 00:23:36;;;;;;;41.15;32.47;;;14.00;99.90;;;;;;5078702;28;20116;-73
2022/09/24 00:28:49;;;;;;;42.58;33.53;;;14.00;99.90;;;;;;5070759;28;20052;-74
2022/09/24 00:31:15;;;;;;;41.85;33.97;;;14.00;99.90;;;;;;5059858;28;20113;-73
2022/09/24 00:33:42;;;;;;;41.55;34.25;;;14.00;99.90;;;;;;5070468;28;20139;-74
2022/09/24 00:36:08;;;;;;;46.85;34.67;;;14.00;99.90;;;;;;5086176;28;20088;-74
2022/09/24 00:38:34;;;;;;;44.13;34.42;;;14.00;99.90;;;;;;5073556;28;20045;-73
2022/09/24 00:41:01;;;;;;;41.65;33.75;;;14.00;99.90;;;;;;5081994;28;20060;-73
2022/09/24 00:43:30;;;;;;;43.53;35.60;;;14.00;99.90;;;;;;5072120;28;20052;-74
2022/09/24 00:46:28;;;;;;;47.45;37.88;;;14.00;99.90;;;;;;5081749;28;20059;-74
2022/09/24 00:49:10;;;;;;;47.75;37.67;;;13.90;99.90;;;;;;5031341;28;20048;-73
2022/09/24 00:51:36;;;;;;;53.22;38.50;;;14.00;99.90;;;;;;5073840;28;20036;-75
2022/09/24 00:54:11;;;;;;;48.53;38.25;;;14.00;99.90;;;;;;5072694;28;20040;-75
2022/09/24 00:56:39;;;;;;;47.50;37.75;;;14.00;99.90;;;;;;5077468;28;20121;-73
2022/09/24 00:59:08;;;;;;;50.33;38.72;;;14.00;99.90;;;;;;5087340;28;20086;-73
2022/09/24 01:01:34;;;;;;;49.95;38.05;;;14.00;99.90;;;;;;5083205;28;20068;-74
2022/09/24 01:04:01;;;;;;;48.42;39.35;;;14.00;99.90;;;;;;5065191;28;20052;-74
2022/09/24 01:06:27;;;;;;;52.05;40.45;;;14.00;99.90;;;;;;5067034;28;20044;-74
2022/09/24 01:08:55;;;;;;;52.90;39.55;;;13.90;99.90;;;;;;5068931;28;20122;-74
2022/09/24 01:11:39;;;;;;;52.45;41.00;;;14.00;99.90;;;;;;5068043;28;20098;-74
2022/09/24 01:14:31;;;;;;;57.72;42.60;;;13.90;99.90;;;;;;5062244;28;20051;-74
2022/09/24 01:17:16;;;;;;;50.85;41.30;;;14.00;99.90;;;;;;5081608;28;20060;-75
2022/09/24 01:19:50;;;;;;;54.28;42.60;;;14.00;99.90;;;;;;5061772;28;20850;-73
2022/09/24 01:22:25;;;;;;;51.38;41.50;;;14.00;99.90;;;;;;5083392;28;20053;-72
2022/09/24 01:25:28;;;;;;;52.53;42.38;;;14.00;99.90;;;;;;5068991;28;20052;-74
2022/09/24 01:28:06;;;;;;;59.53;45.15;;;14.00;99.90;;;;;;5069811;28;20409;-74
2022/09/24 01:30:37;;;;;;;55.10;42.97;;;14.00;99.90;;;;;;5068125;28;20040;-74
2022/09/24 01:33:07;;;;;;;58.45;43.67;;;14.00;99.90;;;;;;5068145;28;20084;-74
2022/09/24 01:35:44;;;;;;;52.75;43.05;;;14.00;99.90;;;;;;5051183;28;20135;-73
2022/09/24 01:38:33;;;;;;;55.22;43.03;;;14.00;99.90;;;;;;5069443;28;20451;-73
2022/09/24 01:41:02;;;;;;;54.42;44.35;;;14.00;99.90;;;;;;5049863;28;20465;-73
2022/09/24 01:43:29;;;;;;;56.45;45.42;;;14.00;99.90;;;;;;5046148;28;20052;-74
2022/09/24 01:45:58;;;;;;;55.58;45.45;;;14.00;99.90;;;;;;5060655;28;20076;-74
2022/09/24 01:48:29;;;;;;;52.83;44.42;;;14.00;99.90;;;;;;5085822;28;20059;-74
2022/09/24 01:51:08;;;;;;;57.85;45.78;;;14.00;99.90;;;;;;5088507;28;20047;-74
2022/09/24 01:53:54;;;;;;;56.42;45.55;;;14.00;99.90;;;;;;5072119;28;20044;-74
2022/09/24 01:56:29;;;;;;;59.80;48.05;;;14.00;99.90;;;;;;5084369;28;20043;-72
2022/09/24 01:59:18;;;;;;;61.28;48.05;;;14.00;99.90;;;;;;5078523;28;20071;-73
2022/09/24 02:02:26;;;;;;;65.97;48.75;;;14.00;99.90;;;;;;5064847;28;20056;-72
2022/09/24 02:05:06;;;;;;;62.75;48.10;;;14.00;99.90;;;;;;5049920;28;20072;-72
2022/09/24 02:07:38;;;;;;;59.58;48.03;;;14.00;99.90;;;;;;5049607;28;20056;-72
2022/09/24 02:10:08;;;;;;;59.28;48.70;;;14.00;99.90;;;;;;5033433;28;20052;-73
2022/09/24 02:12:38;;;;;;;66.32;50.35;;;14.00;99.90;;;;;;5033011;28;20053;-71
2022/09/24 02:15:33;;;;;;;63.65;49.97;;;14.00;99.90;;;;;;5049613;28;20044;-72
2022/09/24 02:18:05;;;;;;;62.47;50.78;;;14.00;99.90;;;;;;5049490;28;20060;-72
2022/09/24 02:20:34;;;;;;;62.92;50.90;;;14.00;99.90;;;;;;5049251;28;20044;-72
2022/09/24 02:23:02;;;;;;;62.50;50.50;;;14.00;99.90;;;;;;5049645;28;20136;-72
2022/09/24 02:25:38;;;;;;;60.50;49.97;;;14.00;99.90;;;;;;5033005;28;20052;-72
2022/09/24 02:28:03;;;;;;;64.60;51.35;;;14.00;99.90;;;;;;5050039;28;20127;-72
2022/09/24 02:30:39;;;;;;;59.15;48.65;;;14.00;99.90;;;;;;5049198;28;20132;-72
2022/09/24 02:34:19;;;;;;;60.40;49.25;;;14.00;99.90;;;;;;5052073;28;20052;-71
2022/09/24 02:35:55;;;;;;;61.13;49.63;;;14.10;99.90;;;;;;5052842;28;20045;-71
2022/09/24 02:38:21;;;;;;;67.90;51.03;;;14.00;99.90;;;;;;5036909;28;20077;-71
2022/09/24 02:40:48;;;;;;;57.83;49.63;;;14.10;99.90;;;;;;5053133;28;20140;-71
2022/09/24 02:43:14;;;;;;;60.60;49.95;;;14.10;99.90;;;;;;5053655;28;20056;-71
2022/09/24 02:45:40;;;;;;;63.97;50.05;;;14.10;99.90;;;;;;5053020;28;20045;-71
2022/09/24 02:48:05;;;;;;;58.78;46.75;;;14.00;99.90;;;;;;5020467;28;20057;-71
2022/09/24 02:50:31;;;;;;;57.58;46.63;;;14.00;99.90;;;;;;5053042;28;20048;-71
2022/09/24 02:52:57;;;;;;;56.83;47.15;;;14.10;99.90;;;;;;5069994;28;20111;-70
2022/09/24 02:55:23;;;;;;;57.42;47.47;;;14.10;99.90;;;;;;5054208;28;20051;-71
2022/09/24 02:57:48;;;;;;;61.28;48.28;;;14.00;99.90;;;;;;5052920;28;20048;-71
2022/09/24 03:00:14;;;;;;;58.90;46.83;;;14.00;99.90;;;;;;5053161;28;20048;-70
2022/09/24 03:02:40;;;;;;;57.67;46.25;;;14.10;99.90;;;;;;5052233;28;20125;-71
2022/09/24 03:05:06;;;;;;;56.50;44.10;;;14.00;99.90;;;;;;5069834;28;20052;-72
2022/09/24 03:07:32;;;;;;;52.05;42.47;;;14.10;99.90;;;;;;5052690;28;20418;-72
2022/09/24 03:09:58;;;;;;;49.75;40.53;;;14.00;99.90;;;;;;5052849;28;20044;-72
2022/09/24 03:12:24;;;;;;;45.17;38.17;;;14.00;99.90;;;;;;5052761;28;20048;-71
2022/09/24 03:14:49;;;;;;;51.90;40.17;;;14.20;99.90;;;;;;5052355;28;20623;-72
2022/09/24 03:17:15;;;;;;;47.42;38.28;;;14.10;99.90;;;;;;5036270;28;20041;-71
2022/09/24 03:19:41;;;;;;;43.33;37.72;;;14.00;99.90;;;;;;5052524;28;20076;-70
2022/09/24 03:22:07;;;;;;;40.15;34.28;;;14.00;99.90;;;;;;5053033;28;20187;-71
2022/09/24 03:24:32;;;;;;;38.45;32.83;;;14.10;99.90;;;;;;5052404;28;20071;-75
2022/09/24 03:26:58;;;;;;;35.47;31.38;;;14.10;99.90;;;;;;5036302;28;20083;-71
2022/09/24 03:32:08;;;;;;;38.40;31.15;;;14.10;99.90;;;;;;5052505;28;20413;-72
2022/09/24 03:34:33;;;;;;;40.20;29.60;;;14.10;99.90;;;;;;5035294;28;20053;-74
2022/09/24 03:36:59;;;;;;;36.15;28.05;;;14.10;99.90;;;;;;5052267;28;20102;-71
2022/09/24 03:39:25;;;;;;;36.40;29.20;;;14.10;99.90;;;;;;5052345;28;20049;-71
2022/09/24 03:41:50;;;;;;;40.10;29.67;;;14.10;99.90;;;;;;5035642;28;20041;-71
2022/09/24 03:44:16;;;;;;;35.15;28.52;;;14.10;99.90;;;;;;5051987;28;20055;-73
2022/09/24 03:46:42;;;;;;;37.75;27.58;;;14.10;99.90;;;;;;5035541;28;20106;-73
2022/09/24 03:49:08;;;;;;;39.40;28.80;;;14.10;99.90;;;;;;5052180;28;20053;-73
2022/09/24 03:51:34;;;;;;;37.08;27.08;;;14.10;99.90;;;;;;5052936;28;20490;-75
2022/09/24 03:54:00;;;;;;;36.22;26.05;;;14.20;99.90;;;;;;5051405;28;20077;-71
2022/09/24 03:56:26;;;;;;;28.88;23.30;;;14.10;99.90;;;;;;5019197;28;20099;-71
2022/09/24 03:58:51;;;;;;;34.00;24.35;;;14.20;99.90;;;;;;5051450;28;20044;-73
2022/09/24 04:01:20;;;;;;;34.05;23.80;;;14.20;99.90;;;;;;5052115;28;20139;-72
2022/09/24 04:03:47;;;;;;;31.80;23.38;;;14.20;99.90;;;;;;5051511;28;20190;-72
2022/09/24 04:06:13;;;;;;;28.10;21.23;;;14.20;99.90;;;;;;5052912;28;20048;-72
2022/09/24 04:08:38;;;;;;;29.42;20.75;;;14.10;99.90;;;;;;5051541;28;20041;-75
2022/09/24 04:11:04;;;;;;;30.00;21.33;;;14.20;99.90;;;;;;5035341;28;20513;-71
2022/09/24 04:13:30;;;;;;;24.02;17.13;;;14.20;99.90;;;;;;5051520;28;20049;-72
2022/09/24 04:16:00;;;;;;;28.42;17.90;;;14.20;99.90;;;;;;5050982;28;20114;-71
2022/09/24 04:18:26;;;;;;;21.52;13.70;;;14.20;99.90;;;;;;5051951;28;20089;-71
2022/09/24 04:20:57;;;;;;;21.13;12.45;;;14.20;99.90;;;;;;5051344;28;20119;-71
2022/09/24 04:23:23;;;;;;;15.82;6.88;;;14.20;99.90;;;;;;5051631;28;20044;-71
2022/09/24 04:25:49;;;;;;;13.55;4.88;;;14.10;99.90;;;;;;5067732;28;20138;-71
2022/09/24 04:28:15;;;;;;;14.27;3.80;;;14.10;99.90;;;;;;5034885;28;20129;-71
2022/09/24 04:30:40;;;;;;;16.02;3.97;;;14.10;99.90;;;;;;5067599;28;20041;-74
2022/09/24 04:33:07;;;;;;;11.30;2.95;;;14.10;99.90;;;;;;5067261;28;20059;-71
2022/09/24 04:35:34;;;;;;;14.32;3.55;;;14.10;99.90;;;;;;5034351;28;20057;-71
2022/09/24 04:38:01;;;;;;;12.25;2.60;;;14.10;99.90;;;;;;5050686;28;20041;-71
2022/09/24 04:40:28;;;;;;;13.90;2.95;;;14.00;99.90;;;;;;5034820;28;20093;-73
2022/09/24 04:42:54;;;;;;;10.35;2.42;;;14.00;99.90;;;;;;5050944;28;20099;-70
2022/09/24 04:45:20;;;;;;;10.38;2.40;;;13.90;99.90;;;;;;5034865;28;20052;-70
2022/09/24 04:47:54;;;;;;;10.27;2.50;;;14.00;99.90;;;;;;5050886;28;20677;-70
2022/09/24 04:50:21;;;;;;;9.23;2.65;;;14.00;99.90;;;;;;5034796;28;20057;-70
2022/09/24 04:52:47;;;;;;;16.95;2.67;;;13.90;99.90;;;;;;5050695;28;20041;-71
2022/09/24 04:55:12;;;;;;;11.45;3.05;;;13.90;99.90;;;;;;5049907;28;20210;-73
2022/09/24 04:57:40;;;;;;;10.82;2.35;;;13.90;99.90;;;;;;5034030;28;20525;-73
2022/09/24 05:00:08;;;;;;;10.30;2.53;;;13.90;99.90;;;;;;5050649;28;20049;-70
2022/09/24 05:02:34;;;;;;;13.07;2.85;;;13.90;99.90;;;;;;5033945;28;20040;-71
2022/09/24 05:05:00;;;;;;;8.00;2.30;;;13.90;99.90;;;;;;5050267;28;20210;-73
2022/09/24 05:07:25;;;;;;;12.98;2.63;;;13.90;99.90;;;;;;5067130;28;20136;-71
2022/09/24 05:09:51;;;;;;;9.60;2.47;;;13.90;99.90;;;;;;5033472;28;20406;-70
2022/09/24 05:12:19;;;;;;;9.77;2.60;;;13.90;99.90;;;;;;5066884;28;20402;-71
2022/09/24 05:14:45;;;;;;;10.52;2.33;;;13.80;99.90;;;;;;5050161;28;20057;-74
2022/09/24 05:17:11;;;;;;;12.45;2.63;;;13.90;99.90;;;;;;5033507;28;20132;-71
2022/09/24 05:19:36;;;;;;;11.07;2.38;;;13.80;99.90;;;;;;5033755;28;20052;-71
2022/09/24 05:22:02;;;;;;;10.32;2.30;;;13.80;99.90;;;;;;5049922;28;20052;-71
2022/09/24 05:24:27;;;;;;;9.35;2.42;;;13.80;99.90;;;;;;5051428;28;20045;-72
2022/09/24 05:27:08;;;;;;;12.25;2.28;;;13.90;99.90;;;;;;5017256;28;20044;-71
2022/09/24 05:29:39;;;;;;;9.93;2.30;;;13.90;99.90;;;;;;5035854;28;20052;-72
2022/09/24 05:32:06;;;;;;;8.80;2.20;;;13.80;99.90;;;;;;5049567;28;20455;-71
2022/09/24 05:34:33;;;;;;;15.68;2.65;;;13.90;99.90;;;;;;5033158;28;20498;-70
2022/09/24 05:37:00;;;;;;;11.32;2.70;;;13.80;99.90;;;;;;5049130;28;20124;-71
2022/09/24 05:39:25;;;;;;;15.43;2.80;;;13.80;99.90;;;;;;5049751;28;20040;-71
2022/09/24 05:41:51;;;;;;;12.18;2.92;;;13.80;99.90;;;;;;5049464;28;20051;-71
2022/09/24 05:44:20;;;;;;;11.50;3.00;;;13.80;99.90;;;;;;5032992;28;20057;-70
2022/09/24 05:46:50;;;;;;;10.82;2.70;;;13.80;99.90;;;;;;5050306;28;20049;-72
2022/09/24 05:49:16;;;;;;;13.70;2.72;;;13.80;99.90;;;;;;5033529;28;20080;-71
2022/09/24 05:51:42;;;;;;;10.95;2.47;;;13.80;99.90;;;;;;5017004;28;20048;-72
2022/09/24 05:54:10;;;;;;;13.45;2.47;;;13.80;99.90;;;;;;5033221;28;20041;-72
2022/09/24 05:56:36;;;;;;;10.65;2.53;;;13.90;99.90;;;;;;5049952;28;20110;-71
2022/09/24 05:59:02;;;;;;;9.48;2.50;;;13.80;99.90;;;;;;5049640;28;20064;-72
2022/09/24 06:01:28;;;;;;;14.02;2.58;;;13.90;99.90;;;;;;5049753;28;20060;-72
2022/09/24 06:03:55;;;;;;;9.27;2.33;;;13.90;99.90;;;;;;5049742;28;20041;-73
2022/09/24 06:06:22;;;;;;;12.77;3.00;;;13.90;99.90;;;;;;5035416;28;20139;-72
2022/09/24 06:08:48;;;;;;;13.60;2.85;;;13.90;99.90;;;;;;5055238;28;20048;-72
2022/09/24 06:11:14;;;;;;;12.82;3.10;;;13.90;99.90;;;;;;5036580;28;20052;-74
2022/09/24 06:13:39;;;;;;;14.50;2.88;;;13.90;99.90;;;;;;5070444;28;20047;-72
2022/09/24 06:16:07;;;;;;;7.10;2.20;;;14.00;99.90;;;;;;5070095;28;20059;-72
2022/09/24 06:18:38;;;;;;;10.32;2.83;;;13.90;99.90;;;;;;5053790;28;20048;-72
2022/09/24 06:21:07;;;;;;;11.35;2.60;;;14.00;99.90;;;;;;5053461;28;20601;-73
2022/09/24 06:23:37;;;;;;;12.70;2.80;;;14.00;99.90;;;;;;5053720;28;20048;-72
2022/09/24 06:26:04;;;;;;;9.75;2.42;;;14.00;99.90;;;;;;5036892;28;20045;-72
2022/09/24 06:28:30;;;;;;;10.98;2.60;;;14.00;99.90;;;;;;5037114;28;20041;-73
2022/09/24 06:30:59;;;;;;;12.13;2.90;;;14.00;99.90;;;;;;5053536;28;20060;-75
2022/09/24 06:33:26;;;;;;;9.63;2.33;;;14.00;99.90;;;;;;5053309;28;20068;-72
2022/09/24 06:35:51;;;;;;;12.57;2.50;;;14.10;99.90;;;;;;5036831;28;20076;-70
2022/09/24 06:38:18;;;;;;;10.25;3.15;;;14.10;99.90;;;;;;5036602;28;20048;-71
2022/09/24 06:40:45;;;;;;;13.70;2.67;;;14.10;99.90;;;;;;5053408;28;20084;-70
2022/09/24 06:43:12;;;;;;;15.70;2.75;;;14.10;99.90;;;;;;5052685;28;20040;-72
2022/09/24 06:45:40;;;;;;;10.63;2.70;;;14.10;99.90;;;;;;5053450;28;20129;-73
2022/09/24 06:48:06;;;;;;;13.13;2.58;;;14.10;99.90;;;;;;5052936;28;20057;-70
2022/09/24 06:50:33;;;;;;;13.13;2.75;;;14.10;99.90;;;;;;5036907;28;20371;-71
2022/09/24 06:53:02;;;;;;;18.08;3.10;;;14.10;99.90;;;;;;5053161;28;20101;-73
2022/09/24 06:55:28;;;;;;;15.70;2.67;;;14.10;99.90;;;;;;5053210;28;20041;-72
2022/09/24 06:58:03;;;;;;;11.35;2.65;;;14.20;99.90;;;;;;5036456;28;20136;-71
2022/09/24 07:00:28;;;;;;;12.50;3.03;;;14.10;99.90;;;;;;5054079;28;20547;-71
2022/09/24 07:02:54;;;;;;;15.77;2.90;;;14.20;99.90;;;;;;5053347;28;20048;-71
2022/09/24 07:05:20;;;;;;;15.57;3.05;;;14.20;99.90;;;;;;5036204;28;20056;-70
2022/09/24 07:07:45;;;;;;;17.55;3.20;;;14.20;99.90;;;;;;5036566;28;20056;-70
2022/09/24 07:10:12;;;;;;;12.38;3.47;;;14.20;99.90;;;;;;5035730;28;20041;-70
2022/09/24 07:12:40;;;;;;;15.48;2.88;;;14.20;99.90;;;;;;5053017;28;20049;-70
2022/09/24 07:15:07;;;;;;;12.23;2.72;;;14.20;99.90;;;;;;5052274;28;20049;-70
2022/09/24 07:17:33;;;;;;;11.98;2.80;;;14.20;99.90;;;;;;5051889;28;20041;-69
2022/09/24 07:19:58;;;;;;;9.68;2.58;;;14.30;99.90;;;;;;5036292;28;20056;-69
2022/09/24 07:22:24;;;;;;;12.65;2.90;;;14.30;99.90;;;;;;5068967;28;20123;-67
2022/09/24 07:24:50;;;;;;;14.63;2.85;;;14.30;99.90;;;;;;5052404;28;20072;-68
2022/09/24 07:27:16;;;;;;;11.40;2.72;;;14.30;99.90;;;;;;5068636;28;20110;-69
2022/09/24 07:29:42;;;;;;;12.77;2.80;;;14.30;99.90;;;;;;5052429;28;20564;-68
2022/09/24 07:32:08;;;;;;;10.80;2.78;;;14.40;99.90;;;;;;5035359;28;20114;-69
2022/09/24 07:34:33;;;;;;;9.20;2.40;;;14.30;99.90;;;;;;5052237;28;20041;-68
2022/09/24 07:36:59;;;;;;;13.18;3.15;;;14.40;99.90;;;;;;5035504;28;20298;-68
2022/09/24 07:39:25;;;;;;;8.93;2.05;;;14.40;99.90;;;;;;5053054;28;20049;-68
2022/09/24 07:41:51;;;;;;;11.43;2.08;;;14.40;99.90;;;;;;5052434;28;20123;-69
2022/09/24 07:44:22;;;;;;;9.32;2.15;;;14.30;99.90;;;;;;5051848;28;20057;-69
2022/09/24 07:46:48;;;;;;;7.38;2.20;;;14.30;99.90;;;;;;5052211;28;20060;-69
2022/09/24 07:49:15;;;;;;;5.35;1.83;;;14.30;99.90;;;;;;5052781;28;20049;-70
2022/09/24 07:51:41;;;;;;;7.85;2.20;;;14.20;99.90;;;;;;5035703;28;20045;-69
2022/09/24 07:54:07;;;;;;;8.10;1.73;;;14.30;99.90;;;;;;5053066;28;20047;-72
2022/09/24 07:56:33;;;;;;;7.22;1.90;;;14.30;99.90;;;;;;5053060;28;20192;-69
2022/09/24 07:58:58;;;;;;;8.13;1.80;;;14.30;99.90;;;;;;5053104;28;20456;-68
2022/09/24 08:01:25;;;;;;;5.32;1.83;;;14.30;99.90;;;;;;5035049;28;20085;-70
2022/09/24 08:03:52;;;;;;;6.90;2.25;;;14.30;99.90;;;;;;5052076;28;20083;-69
2022/09/24 08:06:22;;;;;;;10.57;2.63;;;14.30;99.90;;;;;;5051406;28;20490;-69
2022/09/24 08:08:55;;;;;;;8.95;2.30;;;14.30;99.90;;;;;;5052705;28;20060;-69
2022/09/24 08:11:21;;;;;;;13.27;2.60;;;14.40;99.90;;;;;;5035596;28;20053;-68
2022/09/24 08:13:47;;;;;;;12.48;2.85;;;14.40;99.90;;;;;;5052904;28;20045;-68
2022/09/24 08:16:13;;;;;;;13.43;2.65;;;14.40;99.90;;;;;;5051330;28;20041;-69
2022/09/24 08:18:39;;;;;;;13.18;2.67;;;14.50;99.90;;;;;;5051141;28;20049;-70
2022/09/24 08:21:07;;;;;;;11.80;2.90;;;14.50;99.90;;;;;;5034942;28;20072;-69
2022/09/24 08:23:33;;;;;;;15.85;2.78;;;14.50;99.90;;;;;;5052177;28;20048;-69
2022/09/24 08:25:59;;;;;;;18.58;3.40;;;14.60;99.90;;;;;;5051373;28;20045;-70
2022/09/24 08:28:25;;;;;;;12.88;3.50;;;14.70;99.90;;;;;;5051839;28;20389;-71
2022/09/24 08:30:51;;;;;;;10.50;2.22;;;14.70;99.90;;;;;;5067546;28;20103;-70
2022/09/24 08:33:17;;;;;;;10.18;2.50;;;14.70;99.90;;;;;;5051811;28;20064;-71
2022/09/24 08:35:42;;;;;;;10.48;2.60;;;14.70;99.90;;;;;;5052438;28;20397;-70
2022/09/24 08:38:08;;;;;;;16.20;3.10;;;14.70;99.90;;;;;;5034872;28;20048;-71
2022/09/24 08:40:43;;;;;;;10.35;2.28;;;14.70;99.90;;;;;;5050270;28;20643;-71
2022/09/24 08:43:36;;;;;;;14.60;3.80;;;14.70;99.90;;;;;;5034743;28;20053;-71
2022/09/24 08:48:56;;;;;;;11.85;3.00;;;14.80;99.90;;;;;;5050929;28;20398;-71
2022/09/24 08:51:23;;;;;;;12.07;2.40;;;14.80;99.90;;;;;;5051676;28;20063;-70
2022/09/24 08:53:51;;;;;;;15.93;2.80;;;14.80;99.90;;;;;;5050704;28;20044;-70
2022/09/24 08:56:23;;;;;;;13.38;2.70;;;14.70;99.90;;;;;;5050771;28;20084;-71
2022/09/24 08:58:56;;;;;;;12.13;2.53;;;14.70;99.90;;;;;;5050852;28;20053;-69
2022/09/24 09:01:43;;;;;;;9.43;2.95;;;14.80;99.90;;;;;;5050362;28;20128;-69
2022/09/24 09:04:36;;;;;;;10.70;2.58;;;14.80;99.90;;;;;;5050887;28;20124;-69
2022/09/24 09:07:23;;;;;;;9.82;2.53;;;14.80;99.90;;;;;;5067374;28;20055;-69
2022/09/24 09:10:03;;;;;;;12.95;2.75;;;14.90;99.90;;;;;;5033897;28;20053;-68
2022/09/24 09:12:39;;;;;;;13.52;2.63;;;15.00;99.90;;;;;;5050410;28;20067;-69
2022/09/24 09:15:37;;;;;;;7.50;2.13;;;15.10;99.90;;;;;;5050289;28;20448;-69
2022/09/24 09:18:21;;;;;;;10.60;2.15;;;15.10;99.90;;;;;;5034882;28;20055;-69
2022/09/24 09:20:48;;;;;;;11.50;2.10;;;15.00;99.90;;;;;;5050107;28;20549;-69
2022/09/24 09:23:27;;;;;;;9.25;2.50;;;14.90;99.90;;;;;;5067017;28;20060;-69
2022/09/24 09:25:58;;;;;;;7.63;1.70;;;14.90;99.90;;;;;;5050475;28;20406;-69
2022/09/24 09:28:26;;;;;;;7.82;2.38;;;14.90;99.90;;;;;;5050041;28;20052;-68
2022/09/24 09:31:19;;;;;;;12.52;2.75;;;14.90;99.90;;;;;;5050068;28;20135;-69
2022/09/24 09:34:11;;;;;;;5.05;1.67;;;14.80;99.90;;;;;;5047327;28;20506;-70
2022/09/24 09:37:01;;;;;;;7.75;1.90;;;14.80;99.90;;;;;;5049106;28;20057;-69
2022/09/24 09:40:09;;;;;;;7.43;2.08;;;14.80;99.90;;;;;;5049229;28;20375;-69
2022/09/24 09:42:38;;;;;;;8.00;1.80;;;14.80;99.90;;;;;;5066724;28;20084;-68
2022/09/24 09:45:25;;;;;;;5.82;1.75;;;14.80;99.90;;;;;;5033388;28;20059;-69
2022/09/24 09:47:56;;;;;;;4.05;1.60;;;14.80;99.90;;;;;;5050244;28;20060;-69
2022/09/24 09:50:43;;;;;;;4.07;1.80;;;14.80;99.90;;;;;;5050280;28;20485;-69
2022/09/24 09:53:23;;;;;;;3.25;1.23;;;14.80;99.90;;;;;;5049655;28;20119;-72
2022/09/24 09:55:55;;;;;;;5.50;1.30;;;14.80;99.90;;;;;;5049603;28;20053;-69
2022/09/24 09:58:24;;;;;;;7.28;1.60;;;14.90;99.90;;;;;;5032520;28;20084;-68
2022/09/24 10:00:51;;;;;;;4.28;1.52;;;14.90;99.90;;;;;;5049707;28;20063;-69
2022/09/24 10:03:30;;;;;;;7.25;1.48;;;14.90;99.90;;;;;;5050007;28;20103;-70
2022/09/24 10:05:57;;;;;;;4.75;1.73;;;14.90;99.90;;;;;;5051174;28;20091;-69
2022/09/24 10:08:24;;;;;;;4.93;1.42;;;14.90;99.90;;;;;;5049626;28;20500;-69
2022/09/24 10:11:02;;;;;;;4.28;1.50;;;15.00;99.90;;;;;;5032828;28;20490;-68
2022/09/24 10:13:30;;;;;;;6.57;1.60;;;15.00;99.90;;;;;;5050076;28;20053;-71
2022/09/24 10:16:07;;;;;;;5.97;2.35;;;15.00;99.90;;;;;;5049810;28;20485;-70
2022/09/24 10:18:47;;;;;;;6.53;1.67;;;15.00;99.90;;;;;;5049403;28;20060;-68
2022/09/24 10:21:31;;;;;;;7.53;1.88;;;15.00;99.90;;;;;;5050556;28;20053;-70
2022/09/24 10:24:01;;;;;;;9.57;1.80;;;15.10;99.90;;;;;;5049589;28;20056;-71
2022/09/24 10:26:41;;;;;;;10.18;2.10;;;15.10;99.90;;;;;;5049600;28;20375;-73
2022/09/24 10:32:12;;;;;;;7.55;2.08;;;15.10;99.90;;;;;;5049623;28;20056;-69
2022/09/24 10:34:38;;;;;;;10.43;1.70;;;15.10;99.90;;;;;;5032344;28;20049;-70
2022/09/24 10:37:15;;;;;;;6.45;1.63;;;15.20;99.90;;;;;;5050628;28;20135;-70
2022/09/24 10:39:41;;;;;;;6.97;1.80;;;15.20;99.90;;;;;;5050021;28;20049;-70
2022/09/24 10:42:28;;;;;;;7.75;2.10;;;15.20;99.90;;;;;;5049050;28;20071;-70
2022/09/24 10:44:56;;;;;;;9.88;2.00;;;15.20;99.90;;;;;;5050231;28;20473;-69
2022/09/24 10:47:53;;;;;;;7.97;1.80;;;15.20;99.90;;;;;;5049276;28;20045;-69
2022/09/24 10:50:33;;;;;;;12.02;2.10;;;15.20;99.90;;;;;;5066356;28;20044;-70
2022/09/24 10:53:37;;;;;;;8.75;2.00;;;15.30;99.90;;;;;;5050941;28;20049;-70
2022/09/24 10:56:24;;;;;;;5.30;1.70;;;15.30;99.90;;;;;;5054230;28;20052;-70
2022/09/24 10:59:14;;;;;;;7.72;1.65;;;15.30;99.90;;;;;;5036192;28;20064;-71
2022/09/24 11:01:51;;;;;;;12.10;2.10;;;15.30;99.90;;;;;;5053837;28;20044;-73
2022/09/24 11:04:26;;;;;;;8.38;1.70;;;15.30;99.90;;;;;;5069635;28;20127;-68
2022/09/24 11:07:13;;;;;;;9.55;1.90;;;15.30;99.90;;;;;;5054472;28;20097;-69
2022/09/24 11:09:39;;;;;;;10.10;1.90;;;15.30;99.90;;;;;;5052787;28;20041;-69
2022/09/24 11:12:21;;;;;;;6.38;1.90;;;15.30;99.90;;;;;;5052790;28;20391;-70
2022/09/24 11:15:01;;;;;;;6.68;1.77;;;15.30;99.90;;;;;;5052465;28;20401;-69
2022/09/24 11:17:51;;;;;;;9.35;1.90;;;15.30;99.90;;;;;;5036398;28;20053;-70
2022/09/24 11:20:41;;;;;;;7.72;1.48;;;15.30;99.90;;;;;;5052314;28;20068;-69
2022/09/24 11:23:36;;;;;;;7.97;1.83;;;15.40;99.90;;;;;;5036299;28;20053;-69
2022/09/24 11:26:28;;;;;;;4.28;1.23;;;15.40;99.90;;;;;;5069267;28;20049;-69
2022/09/24 11:29:41;;;;;;;7.70;1.80;;;15.30;99.90;;;;;;5053418;28;20089;-69
2022/09/24 11:32:28;;;;;;;10.88;1.75;;;15.20;99.90;;;;;;4975202;28;20054;-69
2022/09/24 11:35:39;;;;;;;8.63;2.13;;;15.10;99.90;;;;;;5049100;28;20041;-69
2022/09/24 11:38:22;;;;;;;6.80;1.90;;;15.10;99.90;;;;;;5053413;28;20096;-69
2022/09/24 11:41:15;;;;;;;7.78;1.65;;;15.10;99.90;;;;;;5052669;28;20053;-69
2022/09/24 11:44:20;;;;;;;7.10;1.65;;;15.10;99.90;;;;;;5053034;28;20043;-70
2022/09/24 11:47:04;;;;;;;7.85;1.58;;;15.10;99.90;;;;;;5052024;28;20060;-70
2022/09/24 11:49:33;;;;;;;9.65;1.70;;;15.10;99.90;;;;;;5053314;28;20073;-70
2022/09/24 11:52:13;;;;;;;7.70;1.80;;;15.10;99.90;;;;;;5068120;28;20053;-70
2022/09/24 11:54:55;;;;;;;9.02;1.75;;;15.10;99.90;;;;;;5051980;28;20045;-72
2022/09/24 11:57:40;;;;;;;7.25;1.80;;;15.10;99.90;;;;;;5053323;28;20053;-69
2022/09/24 12:00:11;;;;;;;6.50;1.70;;;15.10;99.90;;;;;;5053089;28;20049;-69
2022/09/24 12:02:54;;;;;;;7.53;1.90;;;15.00;99.90;;;;;;5052893;28;20052;-69
2022/09/24 12:05:44;;;;;;;7.18;1.65;;;15.00;99.90;;;;;;5051186;28;20136;-68
2022/09/24 12:08:16;;;;;;;5.97;1.55;;;15.00;99.90;;;;;;5051853;28;20049;-69
2022/09/24 12:10:53;;;;;;;9.68;2.15;;;14.90;99.90;;;;;;5051614;28;20056;-72
2022/09/24 12:14:01;;;;;;;20.42;2.95;;;14.90;99.90;;;;;;5051612;28;20041;-67
2022/09/24 12:16:31;;;;;;;11.50;2.00;;;14.80;99.90;;;;;;5051232;28;20474;-69
2022/09/24 12:19:36;;;;;;;10.50;1.50;;;14.90;99.90;;;;;;5052325;28;20076;-73
2022/09/24 12:22:03;;;;;;;6.57;1.75;;;14.90;99.90;;;;;;5017786;28;20064;-69
2022/09/24 12:24:44;;;;;;;5.10;1.67;;;14.90;99.90;;;;;;5051159;28;20045;-67
2022/09/24 12:27:18;;;;;;;11.00;2.28;;;15.00;99.90;;;;;;5052522;28;20049;-68
2022/09/24 12:32:56;;;;;;;5.82;1.55;;;15.10;99.90;;;;;;5050942;28;20135;-70
2022/09/24 12:35:50;;;;;;;7.43;1.60;;;15.10;99.90;;;;;;5050234;28;20049;-68
2022/09/24 12:38:18;;;;;;;7.35;1.25;;;15.10;99.90;;;;;;5051219;28;20436;-69
2022/09/24 13:45:23;;;;;;;7.25;1.70;;;14.70;99.90;;;;;;1414364;27;20056;-68
2022/09/24 13:48:00;;;;;;;10.55;2.13;;;14.70;99.90;;;;;;4780986;29;20063;-68
2022/09/24 13:50:39;;;;;;;10.95;1.88;;;14.70;99.90;;;;;;4780210;29;20142;-68
2022/09/24 13:53:48;;;;;;;8.70;2.22;;;14.80;99.90;;;;;;4772327;29;20145;-68
2022/09/24 13:56:16;;;;;;;8.52;1.85;;;14.80;99.90;;;;;;4757217;30;20070;-68
2022/09/24 13:58:42;;;;;;;9.50;1.92;;;14.90;99.90;;;;;;4769231;30;20058;-67
2022/09/24 14:01:21;;;;;;;8.93;2.10;;;14.90;99.90;;;;;;4769772;30;20083;-67
2022/09/24 14:03:54;;;;;;;8.20;1.83;;;14.90;99.90;;;;;;4767734;30;20084;-67
2022/09/24 14:06:36;;;;;;;6.63;1.77;;;14.90;99.90;;;;;;4768511;30;20105;-70
2022/09/24 14:09:24;;;;;;;6.45;1.60;;;14.90;99.90;;;;;;4768757;30;20465;-67
2022/09/24 14:11:52;;;;;;;6.82;2.08;;;14.90;99.90;;;;;;4768490;30;20092;-69
2022/09/24 14:14:23;;;;;;;10.02;2.20;;;14.90;99.90;;;;;;4769352;30;20530;-68
2022/09/24 14:16:50;;;;;;;10.43;2.05;;;14.90;99.90;;;;;;4767812;30;20505;-66
2022/09/24 14:19:16;;;;;;;8.10;1.80;;;15.00;99.90;;;;;;4768603;30;20063;-65
2022/09/24 14:21:49;;;;;;;7.18;1.80;;;15.00;99.90;;;;;;4767725;30;20522;-66